sensor_id;sensor_type;location;lat;lon;timestamp;pressure;altitude;pressure_sealevel;temperature;humidity
7584;BME280;3833;41.764;26.204;2022-08-21T00:00:21;100019.09;;;25.90;100.00
7584;BME280;3833;41.764;26.204;2022-08-21T00:02:51;100019.28;;;26.44;100.00
7584;BME280;3833;41.764;26.204;2022-08-21T00:05:23;100017.56;;;26.75;100.00
7584;BME280;3833;41.764;26.204;2022-08-21T00:07:50;100004.50;;;26.72;100.00
7584;BME280;3833;41.764;26.204;2022-08-21T00:10:18;100016.53;;;26.76;100.00
7584;BME280;3833;41.764;26.204;2022-08-21T00:12:46;100008.84;;;26.65;100.00
7584;BME280;3833;41.764;26.204;2022-08-21T00:15:17;100003.53;;;26.57;100.00
7584;BME280;3833;41.764;26.204;2022-08-21T00:17:44;100015.06;;;26.34;100.00
7584;BME280;3833;41.764;26.204;2022-08-21T00:20:13;100021.78;;;25.90;100.00
7584;BME280;3833;41.764;26.204;2022-08-21T00:22:42;99890.97;;;24.66;100.00
7584;BME280;3833;41.764;26.204;2022-08-21T00:25:10;100013.47;;;25.28;100.00
7584;BME280;3833;41.764;26.204;2022-08-21T00:27:37;100007.31;;;25.27;100.00
7584;BME280;3833;41.764;26.204;2022-08-21T00:30:05;100012.81;;;25.41;100.00
7584;BME280;3833;41.764;26.204;2022-08-21T00:32:34;99999.47;;;25.41;100.00
7584;BME280;3833;41.764;26.204;2022-08-21T00:35:04;100000.06;;;25.20;100.00
7584;BME280;3833;41.764;26.204;2022-08-21T00:37:31;99994.69;;;25.12;100.00
7584;BME280;3833;41.764;26.204;2022-08-21T00:39:59;99986.97;;;25.09;100.00
7584;BME280;3833;41.764;26.204;2022-08-21T00:42:28;99986.31;;;25.07;100.00
7584;BME280;3833;41.764;26.204;2022-08-21T00:44:56;99987.41;;;25.30;100.00
7584;BME280;3833;41.764;26.204;2022-08-21T00:47:24;99970.63;;;25.12;100.00
7584;BME280;3833;41.764;26.204;2022-08-21T00:49:51;99982.84;;;24.73;100.00
7584;BME280;3833;41.764;26.204;2022-08-21T00:52:22;99991.16;;;24.70;100.00
7584;BME280;3833;41.764;26.204;2022-08-21T00:54:51;99985.19;;;24.76;100.00
7584;BME280;3833;41.764;26.204;2022-08-21T00:57:26;99983.84;;;24.72;100.00
7584;BME280;3833;41.764;26.204;2022-08-21T00:59:56;99989.59;;;24.59;100.00
7584;BME280;3833;41.764;26.204;2022-08-21T01:02:25;99974.28;;;24.69;100.00
7584;BME280;3833;41.764;26.204;2022-08-21T01:04:52;99986.50;;;25.13;100.00
7584;BME280;3833;41.764;26.204;2022-08-21T01:07:19;99991.78;;;25.46;100.00
7584;BME280;3833;41.764;26.204;2022-08-21T01:09:47;99989.47;;;25.67;100.00
7584;BME280;3833;41.764;26.204;2022-08-21T01:12:14;100000.34;;;25.66;100.00
7584;BME280;3833;41.764;26.204;2022-08-21T01:14:43;100000.84;;;25.69;100.00
7584;BME280;3833;41.764;26.204;2022-08-21T01:17:13;100005.19;;;25.70;100.00
7584;BME280;3833;41.764;26.204;2022-08-21T01:19:41;99994.50;;;25.54;100.00
7584;BME280;3833;41.764;26.204;2022-08-21T01:22:09;99912.59;;;24.96;100.00
7584;BME280;3833;41.764;26.204;2022-08-21T01:24:36;99994.03;;;25.18;100.00
7584;BME280;3833;41.764;26.204;2022-08-21T01:27:03;99980.69;;;25.18;100.00
7584;BME280;3833;41.764;26.204;2022-08-21T01:29:34;99979.69;;;25.19;100.00
7584;BME280;3833;41.764;26.204;2022-08-21T01:32:06;99973.19;;;24.88;100.00
7584;BME280;3833;41.764;26.204;2022-08-21T01:34:36;99965.81;;;24.82;100.00
7584;BME280;3833;41.764;26.204;2022-08-21T01:37:05;99971.06;;;24.99;100.00
7584;BME280;3833;41.764;26.204;2022-08-21T01:39:33;99913.47;;;25.05;100.00
7584;BME280;3833;41.764;26.204;2022-08-21T01:42:03;99854.03;;;25.19;100.00
7584;BME280;3833;41.764;26.204;2022-08-21T01:44:31;99956.50;;;25.27;100.00
7584;BME280;3833;41.764;26.204;2022-08-21T01:46:59;99952.16;;;24.85;100.00
7584;BME280;3833;41.764;26.204;2022-08-21T01:49:27;99950.19;;;25.03;100.00
7584;BME280;3833;41.764;26.204;2022-08-21T01:51:54;99951.13;;;25.19;100.00
7584;BME280;3833;41.764;26.204;2022-08-21T01:54:21;99936.94;;;25.58;100.00
7584;BME280;3833;41.764;26.204;2022-08-21T01:56:52;99942.44;;;24.76;100.00
7584;BME280;3833;41.764;26.204;2022-08-21T01:59:21;99925.75;;;24.15;100.00
7584;BME280;3833;41.764;26.204;2022-08-21T02:01:49;99943.00;;;24.54;100.00
7584;BME280;3833;41.764;26.204;2022-08-21T02:04:16;99931.81;;;24.92;100.00
7584;BME280;3833;41.764;26.204;2022-08-21T02:06:43;99931.03;;;25.07;100.00
7584;BME280;3833;41.764;26.204;2022-08-21T02:09:11;99937.09;;;25.33;100.00
7584;BME280;3833;41.764;26.204;2022-08-21T02:11:39;99945.28;;;25.16;100.00
7584;BME280;3833;41.764;26.204;2022-08-21T02:14:08;99940.44;;;25.19;100.00
7584;BME280;3833;41.764;26.204;2022-08-21T02:16:36;99892.22;;;24.95;100.00
7584;BME280;3833;41.764;26.204;2022-08-21T02:19:03;99946.97;;;25.33;100.00
7584;BME280;3833;41.764;26.204;2022-08-21T02:21:31;99941.31;;;25.51;100.00
7584;BME280;3833;41.764;26.204;2022-08-21T02:23:58;99953.03;;;25.74;100.00
7584;BME280;3833;41.764;26.204;2022-08-21T02:26:29;99945.66;;;25.68;100.00
7584;BME280;3833;41.764;26.204;2022-08-21T02:28:56;99962.72;;;25.75;100.00
7584;BME280;3833;41.764;26.204;2022-08-21T02:31:24;99938.28;;;25.62;100.00
7584;BME280;3833;41.764;26.204;2022-08-21T02:33:51;99963.72;;;25.74;100.00
7584;BME280;3833;41.764;26.204;2022-08-21T02:36:18;99963.41;;;25.77;100.00
7584;BME280;3833;41.764;26.204;2022-08-21T02:38:45;99963.56;;;25.76;100.00
7584;BME280;3833;41.764;26.204;2022-08-21T02:41:14;99969.44;;;25.87;100.00
7584;BME280;3833;41.764;26.204;2022-08-21T02:43:41;99973.13;;;25.86;100.00
7584;BME280;3833;41.764;26.204;2022-08-21T02:46:09;99984.00;;;25.93;100.00
7584;BME280;3833;41.764;26.204;2022-08-21T02:48:38;99969.09;;;25.82;100.00
7584;BME280;3833;41.764;26.204;2022-08-21T02:51:08;99974.13;;;25.93;100.00
7584;BME280;3833;41.764;26.204;2022-08-21T02:53:35;99968.06;;;25.67;100.00
7584;BME280;3833;41.764;26.204;2022-08-21T02:56:04;99966.56;;;25.57;100.00
7584;BME280;3833;41.764;26.204;2022-08-21T02:58:34;99944.50;;;25.63;100.00
7584;BME280;3833;41.764;26.204;2022-08-21T03:01:02;99963.03;;;25.64;100.00
7584;BME280;3833;41.764;26.204;2022-08-21T03:03:29;99966.38;;;25.34;100.00
7584;BME280;3833;41.764;26.204;2022-08-21T03:05:57;99961.38;;;25.63;100.00
7584;BME280;3833;41.764;26.204;2022-08-21T03:08:24;99968.41;;;25.72;100.00
7584;BME280;3833;41.764;26.204;2022-08-21T03:10:52;99975.25;;;25.59;100.00
7584;BME280;3833;41.764;26.204;2022-08-21T03:13:20;99989.47;;;25.51;100.00
7584;BME280;3833;41.764;26.204;2022-08-21T03:15:47;99990.75;;;25.32;100.00
7584;BME280;3833;41.764;26.204;2022-08-21T03:18:14;99991.38;;;25.18;100.00
7584;BME280;3833;41.764;26.204;2022-08-21T03:20:42;99989.63;;;25.01;100.00
7584;BME280;3833;41.764;26.204;2022-08-21T03:23:11;99993.59;;;24.89;100.00
7584;BME280;3833;41.764;26.204;2022-08-21T03:25:39;99989.19;;;24.80;100.00
7584;BME280;3833;41.764;26.204;2022-08-21T03:28:10;100000.19;;;24.69;100.00
7584;BME280;3833;41.764;26.204;2022-08-21T03:30:37;99998.72;;;24.49;100.00
7584;BME280;3833;41.764;26.204;2022-08-21T03:33:03;99997.63;;;24.42;100.00
7584;BME280;3833;41.764;26.204;2022-08-21T03:35:30;100012.63;;;24.35;100.00
7584;BME280;3833;41.764;26.204;2022-08-21T03:37:57;100001.81;;;24.19;100.00
7584;BME280;3833;41.764;26.204;2022-08-21T03:40:28;100003.34;;;24.22;100.00
7584;BME280;3833;41.764;26.204;2022-08-21T03:42:55;100003.38;;;24.04;100.00
7584;BME280;3833;41.764;26.204;2022-08-21T03:45:22;99988.75;;;23.73;100.00
7584;BME280;3833;41.764;26.204;2022-08-21T03:47:54;100008.91;;;23.85;100.00
7584;BME280;3833;41.764;26.204;2022-08-21T03:50:23;100003.78;;;23.92;100.00
7584;BME280;3833;41.764;26.204;2022-08-21T03:52:51;100028.38;;;24.03;100.00
7584;BME280;3833;41.764;26.204;2022-08-21T03:55:21;100039.84;;;24.13;100.00
7584;BME280;3833;41.764;26.204;2022-08-21T03:57:50;100046.84;;;24.14;100.00
7584;BME280;3833;41.764;26.204;2022-08-21T04:00:18;100052.19;;;24.14;100.00
7584;BME280;3833;41.764;26.204;2022-08-21T04:02:46;100015.22;;;23.84;100.00
7584;BME280;3833;41.764;26.204;2022-08-21T04:05:14;100065.44;;;24.06;100.00
7584;BME280;3833;41.764;26.204;2022-08-21T04:07:52;100056.44;;;24.07;100.00
7584;BME280;3833;41.764;26.204;2022-08-21T04:10:20;100045.09;;;23.88;100.00
7584;BME280;3833;41.764;26.204;2022-08-21T04:12:46;100057.75;;;24.03;100.00
7584;BME280;3833;41.764;26.204;2022-08-21T04:15:15;100055.59;;;24.07;100.00
7584;BME280;3833;41.764;26.204;2022-08-21T04:17:42;100043.75;;;23.84;100.00
7584;BME280;3833;41.764;26.204;2022-08-21T04:20:09;100056.22;;;23.83;100.00
7584;BME280;3833;41.764;26.204;2022-08-21T04:22:37;100063.78;;;24.05;100.00
7584;BME280;3833;41.764;26.204;2022-08-21T04:25:05;100065.88;;;24.19;100.00
7584;BME280;3833;41.764;26.204;2022-08-21T04:27:32;100037.91;;;24.06;100.00
7584;BME280;3833;41.764;26.204;2022-08-21T04:29:59;100068.19;;;24.14;100.00
7584;BME280;3833;41.764;26.204;2022-08-21T04:32:28;100063.72;;;24.40;100.00
7584;BME280;3833;41.764;26.204;2022-08-21T04:34:58;100061.16;;;24.48;100.00
7584;BME280;3833;41.764;26.204;2022-08-21T04:37:26;100069.22;;;24.56;100.00
7584;BME280;3833;41.764;26.204;2022-08-21T04:39:54;100074.47;;;24.65;100.00
7584;BME280;3833;41.764;26.204;2022-08-21T04:42:23;100061.56;;;24.61;100.00
7584;BME280;3833;41.764;26.204;2022-08-21T04:44:50;100044.81;;;24.51;100.00
7584;BME280;3833;41.764;26.204;2022-08-21T04:47:17;100063.00;;;24.81;100.00
7584;BME280;3833;41.764;26.204;2022-08-21T04:49:45;100066.38;;;24.83;100.00
7584;BME280;3833;41.764;26.204;2022-08-21T04:52:15;100064.19;;;24.78;100.00
7584;BME280;3833;41.764;26.204;2022-08-21T04:54:44;100068.31;;;24.73;100.00
7584;BME280;3833;41.764;26.204;2022-08-21T04:57:12;100075.59;;;24.63;100.00
7584;BME280;3833;41.764;26.204;2022-08-21T04:59:45;100062.81;;;24.74;100.00
7584;BME280;3833;41.764;26.204;2022-08-21T05:02:14;100066.28;;;24.67;100.00
7584;BME280;3833;41.764;26.204;2022-08-21T05:04:51;100066.91;;;24.86;100.00
7584;BME280;3833;41.764;26.204;2022-08-21T05:07:21;100064.13;;;24.96;100.00
7584;BME280;3833;41.764;26.204;2022-08-21T05:09:49;100058.38;;;25.16;100.00
7584;BME280;3833;41.764;26.204;2022-08-21T05:12:17;100067.44;;;25.31;100.00
7584;BME280;3833;41.764;26.204;2022-08-21T05:14:44;100059.97;;;25.34;100.00
7584;BME280;3833;41.764;26.204;2022-08-21T05:17:12;100051.28;;;25.40;100.00
7584;BME280;3833;41.764;26.204;2022-08-21T05:19:39;100041.53;;;25.24;100.00
7584;BME280;3833;41.764;26.204;2022-08-21T05:22:07;100051.34;;;25.56;100.00
7584;BME280;3833;41.764;26.204;2022-08-21T05:24:35;100051.69;;;25.69;100.00
7584;BME280;3833;41.764;26.204;2022-08-21T05:27:02;100062.94;;;25.89;100.00
7584;BME280;3833;41.764;26.204;2022-08-21T05:29:28;100059.44;;;26.04;100.00
7584;BME280;3833;41.764;26.204;2022-08-21T05:31:56;100050.78;;;26.18;100.00
7584;BME280;3833;41.764;26.204;2022-08-21T05:34:23;100051.09;;;26.23;100.00
7584;BME280;3833;41.764;26.204;2022-08-21T05:36:50;100054.78;;;26.38;100.00
7584;BME280;3833;41.764;26.204;2022-08-21T05:39:18;100011.09;;;26.22;100.00
7584;BME280;3833;41.764;26.204;2022-08-21T05:41:45;100043.72;;;26.57;100.00
7584;BME280;3833;41.764;26.204;2022-08-21T05:44:13;100045.31;;;26.82;100.00
7584;BME280;3833;41.764;26.204;2022-08-21T05:46:40;100044.09;;;27.08;100.00
7584;BME280;3833;41.764;26.204;2022-08-21T05:49:06;100008.41;;;27.00;100.00
7584;BME280;3833;41.764;26.204;2022-08-21T05:51:34;100035.88;;;27.10;100.00
7584;BME280;3833;41.764;26.204;2022-08-21T05:54:01;100034.72;;;27.04;100.00
7584;BME280;3833;41.764;26.204;2022-08-21T05:56:29;100041.34;;;27.24;100.00
7584;BME280;3833;41.764;26.204;2022-08-21T05:58:56;100033.34;;;27.47;100.00
7584;BME280;3833;41.764;26.204;2022-08-21T06:01:23;100043.31;;;27.68;100.00
7584;BME280;3833;41.764;26.204;2022-08-21T06:03:50;100039.25;;;27.72;100.00
7584;BME280;3833;41.764;26.204;2022-08-21T06:06:17;100042.94;;;27.71;100.00
7584;BME280;3833;41.764;26.204;2022-08-21T06:08:44;100041.16;;;27.86;100.00
7584;BME280;3833;41.764;26.204;2022-08-21T06:11:11;100051.66;;;27.96;100.00
7584;BME280;3833;41.764;26.204;2022-08-21T06:13:39;100043.91;;;27.78;100.00
7584;BME280;3833;41.764;26.204;2022-08-21T06:16:09;100038.06;;;27.75;100.00
7584;BME280;3833;41.764;26.204;2022-08-21T06:18:37;100035.78;;;27.86;100.00
7584;BME280;3833;41.764;26.204;2022-08-21T06:21:05;100030.31;;;28.02;100.00
7584;BME280;3833;41.764;26.204;2022-08-21T06:23:32;100018.63;;;27.95;100.00
7584;BME280;3833;41.764;26.204;2022-08-21T06:25:59;100022.19;;;28.10;100.00
7584;BME280;3833;41.764;26.204;2022-08-21T06:28:30;100029.22;;;28.11;100.00
7584;BME280;3833;41.764;26.204;2022-08-21T06:30:59;100024.38;;;28.29;100.00
7584;BME280;3833;41.764;26.204;2022-08-21T06:33:25;99983.00;;;28.16;100.00
7584;BME280;3833;41.764;26.204;2022-08-21T06:35:53;100023.16;;;28.68;98.82
7584;BME280;3833;41.764;26.204;2022-08-21T06:38:20;100023.72;;;28.93;95.36
7584;BME280;3833;41.764;26.204;2022-08-21T06:40:47;100019.44;;;29.13;92.38
7584;BME280;3833;41.764;26.204;2022-08-21T06:43:16;100021.44;;;29.40;90.12
7584;BME280;3833;41.764;26.204;2022-08-21T06:45:43;100021.09;;;29.43;89.93
7584;BME280;3833;41.764;26.204;2022-08-21T06:48:12;100027.00;;;29.53;88.90
7584;BME280;3833;41.764;26.204;2022-08-21T06:50:39;100024.47;;;29.66;86.95
7584;BME280;3833;41.764;26.204;2022-08-21T06:53:07;100024.88;;;29.83;87.01
7584;BME280;3833;41.764;26.204;2022-08-21T06:55:35;100031.50;;;29.87;85.50
7584;BME280;3833;41.764;26.204;2022-08-21T06:58:05;99988.94;;;29.56;85.63
7584;BME280;3833;41.764;26.204;2022-08-21T07:00:33;100034.41;;;29.86;84.39
7584;BME280;3833;41.764;26.204;2022-08-21T07:03:00;100013.88;;;29.99;83.66
7584;BME280;3833;41.764;26.204;2022-08-21T07:05:30;100036.09;;;30.83;78.99
7584;BME280;3833;41.764;26.204;2022-08-21T07:07:58;100002.91;;;30.83;78.55
7584;BME280;3833;41.764;26.204;2022-08-21T07:10:26;100032.03;;;31.28;76.71
7584;BME280;3833;41.764;26.204;2022-08-21T07:12:53;100031.25;;;31.47;74.99
7584;BME280;3833;41.764;26.204;2022-08-21T07:15:20;100030.84;;;31.50;75.09
7584;BME280;3833;41.764;26.204;2022-08-21T07:17:47;99982.31;;;31.76;70.90
7584;BME280;3833;41.764;26.204;2022-08-21T07:20:14;100030.63;;;32.24;70.26
7584;BME280;3833;41.764;26.204;2022-08-21T07:22:43;100029.75;;;32.88;68.62
7584;BME280;3833;41.764;26.204;2022-08-21T07:25:11;100026.06;;;33.33;64.87
7584;BME280;3833;41.764;26.204;2022-08-21T07:27:38;100016.38;;;33.63;63.56
7584;BME280;3833;41.764;26.204;2022-08-21T07:30:06;100017.59;;;33.98;61.93
7584;BME280;3833;41.764;26.204;2022-08-21T07:32:33;100007.38;;;34.00;61.33
7584;BME280;3833;41.764;26.204;2022-08-21T07:35:00;100017.66;;;34.89;57.69
7584;BME280;3833;41.764;26.204;2022-08-21T07:37:29;100010.13;;;34.48;58.11
7584;BME280;3833;41.764;26.204;2022-08-21T07:39:57;100001.84;;;33.51;61.60
7584;BME280;3833;41.764;26.204;2022-08-21T07:42:24;100007.09;;;33.39;62.15
7584;BME280;3833;41.764;26.204;2022-08-21T07:44:51;100005.72;;;34.29;59.70
7584;BME280;3833;41.764;26.204;2022-08-21T07:47:20;99825.50;;;33.77;56.81
7584;BME280;3833;41.764;26.204;2022-08-21T07:49:47;99990.19;;;34.61;55.91
7584;BME280;3833;41.764;26.204;2022-08-21T07:52:14;99970.50;;;33.92;58.02
7584;BME280;3833;41.764;26.204;2022-08-21T07:54:41;99954.78;;;34.01;57.96
7584;BME280;3833;41.764;26.204;2022-08-21T07:57:09;99985.72;;;33.69;58.32
7584;BME280;3833;41.764;26.204;2022-08-21T07:59:36;99976.31;;;33.27;60.29
7584;BME280;3833;41.764;26.204;2022-08-21T08:02:03;99954.03;;;32.43;62.27
7584;BME280;3833;41.764;26.204;2022-08-21T08:04:33;99977.34;;;31.79;65.12
7584;BME280;3833;41.764;26.204;2022-08-21T08:07:00;99978.75;;;31.09;68.63
7584;BME280;3833;41.764;26.204;2022-08-21T08:09:29;99966.56;;;30.79;69.81
7584;BME280;3833;41.764;26.204;2022-08-21T08:11:56;99960.91;;;30.40;71.46
7584;BME280;3833;41.764;26.204;2022-08-21T08:14:24;99961.94;;;30.12;75.27
7584;BME280;3833;41.764;26.204;2022-08-21T08:16:51;99956.25;;;29.79;77.44
7584;BME280;3833;41.764;26.204;2022-08-21T08:19:18;99949.56;;;29.75;78.86
7584;BME280;3833;41.764;26.204;2022-08-21T08:21:45;99940.03;;;29.73;79.81
7584;BME280;3833;41.764;26.204;2022-08-21T08:24:12;99923.94;;;29.79;81.09
7584;BME280;3833;41.764;26.204;2022-08-21T08:26:39;99925.69;;;29.93;79.59
7584;BME280;3833;41.764;26.204;2022-08-21T08:29:08;99914.00;;;30.07;79.10
7584;BME280;3833;41.764;26.204;2022-08-21T08:31:37;99909.38;;;30.22;78.15
7584;BME280;3833;41.764;26.204;2022-08-21T08:34:04;99923.69;;;30.29;77.59
7584;BME280;3833;41.764;26.204;2022-08-21T08:36:33;99923.91;;;30.28;77.89
7584;BME280;3833;41.764;26.204;2022-08-21T08:39:00;99908.09;;;30.18;77.96
7584;BME280;3833;41.764;26.204;2022-08-21T08:41:29;99903.47;;;30.12;78.35
7584;BME280;3833;41.764;26.204;2022-08-21T08:44:00;99922.25;;;30.27;77.74
7584;BME280;3833;41.764;26.204;2022-08-21T08:46:33;99929.38;;;30.41;78.68
7584;BME280;3833;41.764;26.204;2022-08-21T08:49:08;99917.38;;;30.43;77.95
7584;BME280;3833;41.764;26.204;2022-08-21T08:51:42;99916.56;;;30.49;76.94
7584;BME280;3833;41.764;26.204;2022-08-21T08:54:15;99912.47;;;30.53;78.39
7584;BME280;3833;41.764;26.204;2022-08-21T08:56:43;99903.34;;;30.54;76.13
7584;BME280;3833;41.764;26.204;2022-08-21T08:59:20;99859.72;;;30.44;77.99
7584;BME280;3833;41.764;26.204;2022-08-21T09:01:49;99909.13;;;30.85;76.89
7584;BME280;3833;41.764;26.204;2022-08-21T09:04:38;99899.34;;;30.84;74.54
7584;BME280;3833;41.764;26.204;2022-08-21T09:07:15;99881.03;;;30.73;73.94
7584;BME280;3833;41.764;26.204;2022-08-21T09:09:55;99854.94;;;30.80;74.15
7584;BME280;3833;41.764;26.204;2022-08-21T09:12:33;99900.53;;;31.15;74.73
7584;BME280;3833;41.764;26.204;2022-08-21T09:15:11;99899.91;;;31.20;73.34
7584;BME280;3833;41.764;26.204;2022-08-21T09:17:55;99895.31;;;31.07;74.71
7584;BME280;3833;41.764;26.204;2022-08-21T09:20:33;99897.19;;;30.67;76.79
7584;BME280;3833;41.764;26.204;2022-08-21T09:23:13;99878.19;;;30.13;79.21
7584;BME280;3833;41.764;26.204;2022-08-21T09:25:53;99889.63;;;30.15;80.52
7584;BME280;3833;41.764;26.204;2022-08-21T09:28:22;99888.06;;;30.00;79.46
7584;BME280;3833;41.764;26.204;2022-08-21T09:30:50;99892.66;;;30.06;80.74
7584;BME280;3833;41.764;26.204;2022-08-21T09:33:20;99875.75;;;29.91;80.85
7584;BME280;3833;41.764;26.204;2022-08-21T09:35:51;99886.06;;;29.87;82.36
7584;BME280;3833;41.764;26.204;2022-08-21T09:38:28;99897.50;;;29.68;81.15
7584;BME280;3833;41.764;26.204;2022-08-21T09:40:59;99874.44;;;29.18;85.31
7584;BME280;3833;41.764;26.204;2022-08-21T09:43:27;99896.97;;;29.17;87.35
7584;BME280;3833;41.764;26.204;2022-08-21T09:46:04;99888.81;;;28.89;90.77
7584;BME280;3833;41.764;26.204;2022-08-21T09:48:43;99896.41;;;28.86;91.82
7584;BME280;3833;41.764;26.204;2022-08-21T09:51:15;99892.59;;;28.80;93.02
7584;BME280;3833;41.764;26.204;2022-08-21T09:53:46;99902.34;;;28.96;93.37
7584;BME280;3833;41.764;26.204;2022-08-21T09:56:21;99885.91;;;28.76;95.09
7584;BME280;3833;41.764;26.204;2022-08-21T09:59:25;99896.63;;;28.41;100.00
7584;BME280;3833;41.764;26.204;2022-08-21T10:01:53;99897.00;;;28.38;100.00
7584;BME280;3833;41.764;26.204;2022-08-21T10:04:23;99904.59;;;28.49;100.00
7584;BME280;3833;41.764;26.204;2022-08-21T10:06:51;99905.72;;;28.40;100.00
7584;BME280;3833;41.764;26.204;2022-08-21T10:09:19;99899.56;;;28.46;100.00
7584;BME280;3833;41.764;26.204;2022-08-21T10:11:56;99884.38;;;28.53;100.00
7584;BME280;3833;41.764;26.204;2022-08-21T10:14:46;99890.56;;;28.68;100.00
7584;BME280;3833;41.764;26.204;2022-08-21T10:17:20;99888.44;;;28.78;100.00
7584;BME280;3833;41.764;26.204;2022-08-21T10:19:53;99890.75;;;28.81;100.00
7584;BME280;3833;41.764;26.204;2022-08-21T10:22:31;99857.44;;;28.47;100.00
7584;BME280;3833;41.764;26.204;2022-08-21T10:25:08;99883.16;;;28.56;100.00
7584;BME280;3833;41.764;26.204;2022-08-21T10:27:42;99878.00;;;28.40;100.00
7584;BME280;3833;41.764;26.204;2022-08-21T10:30:17;99884.03;;;28.42;100.00
7584;BME280;3833;41.764;26.204;2022-08-21T10:33:05;99879.00;;;28.53;100.00
7584;BME280;3833;41.764;26.204;2022-08-21T10:35:39;99885.13;;;28.61;100.00
7584;BME280;3833;41.764;26.204;2022-08-21T10:41:16;99875.63;;;28.94;100.00
7584;BME280;3833;41.764;26.204;2022-08-21T10:43:52;99854.28;;;28.93;100.00
7584;BME280;3833;41.764;26.204;2022-08-21T10:46:34;99859.28;;;28.96;100.00
7584;BME280;3833;41.764;26.204;2022-08-21T10:49:10;99852.06;;;29.17;100.00
7584;BME280;3833;41.764;26.204;2022-08-21T10:51:44;99857.25;;;29.40;100.00
7584;BME280;3833;41.764;26.204;2022-08-21T10:54:22;99775.56;;;29.26;99.79
7584;BME280;3833;41.764;26.204;2022-08-21T10:57:00;99829.09;;;29.90;96.53
7584;BME280;3833;41.764;26.204;2022-08-21T10:59:38;99703.28;;;29.44;92.75
7584;BME280;3833;41.764;26.204;2022-08-21T11:02:14;99840.16;;;30.29;91.22
7584;BME280;3833;41.764;26.204;2022-08-21T11:04:49;99850.09;;;30.29;91.04
7584;BME280;3833;41.764;26.204;2022-08-21T11:07:20;99854.06;;;30.33;90.61
7584;BME280;3833;41.764;26.204;2022-08-21T11:09:49;99851.56;;;30.31;90.80
7584;BME280;3833;41.764;26.204;2022-08-21T11:12:24;99849.69;;;30.25;90.64
7584;BME280;3833;41.764;26.204;2022-08-21T11:14:56;99844.44;;;30.17;91.74
7584;BME280;3833;41.764;26.204;2022-08-21T11:17:30;99836.41;;;30.30;90.14
7584;BME280;3833;41.764;26.204;2022-08-21T11:20:07;99823.97;;;30.29;89.33
7584;BME280;3833;41.764;26.204;2022-08-21T11:22:39;99836.91;;;30.40;89.73
7584;BME280;3833;41.764;26.204;2022-08-21T11:25:13;99831.13;;;30.43;88.69
7584;BME280;3833;41.764;26.204;2022-08-21T11:27:47;99836.19;;;30.59;87.84
7584;BME280;3833;41.764;26.204;2022-08-21T11:30:15;99825.44;;;30.72;86.20
7584;BME280;3833;41.764;26.204;2022-08-21T11:32:56;99814.28;;;30.88;85.77
7584;BME280;3833;41.764;26.204;2022-08-21T11:35:33;99821.38;;;31.02;85.20
7584;BME280;3833;41.764;26.204;2022-08-21T11:38:18;99817.91;;;31.08;83.43
7584;BME280;3833;41.764;26.204;2022-08-21T11:40:59;99817.63;;;31.03;83.73
7584;BME280;3833;41.764;26.204;2022-08-21T11:43:37;99806.47;;;31.19;82.27
7584;BME280;3833;41.764;26.204;2022-08-21T11:46:18;99789.03;;;31.21;80.63
7584;BME280;3833;41.764;26.204;2022-08-21T11:49:06;99797.34;;;31.33;80.75
7584;BME280;3833;41.764;26.204;2022-08-21T11:51:44;99794.44;;;31.47;79.28
7584;BME280;3833;41.764;26.204;2022-08-21T11:54:23;99785.28;;;31.55;77.83
7584;BME280;3833;41.764;26.204;2022-08-21T11:56:57;99766.19;;;31.56;77.42
7584;BME280;3833;41.764;26.204;2022-08-21T11:59:35;99623.38;;;30.58;77.97
7584;BME280;3833;41.764;26.204;2022-08-21T12:02:07;99779.50;;;31.45;78.75
7584;BME280;3833;41.764;26.204;2022-08-21T12:04:45;99753.31;;;31.65;77.41
7584;BME280;3833;41.764;26.204;2022-08-21T12:07:15;99773.44;;;31.82;76.48
7584;BME280;3833;41.764;26.204;2022-08-21T12:09:52;99762.44;;;31.90;76.53
7584;BME280;3833;41.764;26.204;2022-08-21T12:12:25;99760.94;;;31.87;75.72
7584;BME280;3833;41.764;26.204;2022-08-21T12:15:23;99736.59;;;32.06;75.17
7584;BME280;3833;41.764;26.204;2022-08-21T12:17:54;99745.06;;;32.67;70.97
7584;BME280;3833;41.764;26.204;2022-08-21T12:20:43;99709.22;;;32.78;68.60
7584;BME280;3833;41.764;26.204;2022-08-21T12:23:26;99723.78;;;33.32;66.82
7584;BME280;3833;41.764;26.204;2022-08-21T12:26:23;99722.31;;;33.78;64.18
7584;BME280;3833;41.764;26.204;2022-08-21T12:28:50;99738.22;;;33.93;63.43
7584;BME280;3833;41.764;26.204;2022-08-21T12:31:22;99730.91;;;33.51;62.72
7584;BME280;3833;41.764;26.204;2022-08-21T12:33:56;99709.34;;;32.89;65.34
7584;BME280;3833;41.764;26.204;2022-08-21T12:36:28;99722.00;;;32.64;67.17
7584;BME280;3833;41.764;26.204;2022-08-21T12:39:00;99720.63;;;32.42;67.90
7584;BME280;3833;41.764;26.204;2022-08-21T12:41:34;99703.78;;;31.90;68.67
7584;BME280;3833;41.764;26.204;2022-08-21T12:44:07;99711.31;;;31.82;70.00
7584;BME280;3833;41.764;26.204;2022-08-21T12:46:51;99691.81;;;31.54;70.59
7584;BME280;3833;41.764;26.204;2022-08-21T12:49:37;99728.41;;;31.63;71.73
7584;BME280;3833;41.764;26.204;2022-08-21T12:52:15;99720.47;;;31.55;71.65
7584;BME280;3833;41.764;26.204;2022-08-21T12:54:44;99718.22;;;31.58;71.91
7584;BME280;3833;41.764;26.204;2022-08-21T12:57:19;99722.16;;;31.69;71.47
7584;BME280;3833;41.764;26.204;2022-08-21T12:59:51;99715.47;;;31.78;71.99
7584;BME280;3833;41.764;26.204;2022-08-21T13:02:24;99706.91;;;31.87;69.82
7584;BME280;3833;41.764;26.204;2022-08-21T13:04:54;99710.47;;;31.88;69.99
7584;BME280;3833;41.764;26.204;2022-08-21T13:07:26;99716.03;;;31.99;69.26
7584;BME280;3833;41.764;26.204;2022-08-21T13:10:04;99711.59;;;32.17;69.77
7584;BME280;3833;41.764;26.204;2022-08-21T13:12:33;99710.00;;;32.47;69.14
7584;BME280;3833;41.764;26.204;2022-08-21T13:15:04;99704.94;;;32.57;67.24
7584;BME280;3833;41.764;26.204;2022-08-21T13:17:36;99695.63;;;32.47;66.51
7584;BME280;3833;41.764;26.204;2022-08-21T13:20:27;99697.47;;;32.53;66.20